Time;durP1;ratioP1;P1;durP2;ratioP2;P2;SDS_P1;SDS_P2;PMS_P1;PMS_P2;Temp;Humidity;BMP_temperature;BMP_pressure;BME280_temperature;BME280_humidity;BME280_pressure;Samples;Min_cycle;Max_cycle;Signal;HPM_P1;HPM_P2
2022/12/15 00:39:02;;;;;;;29.73;14.68;;;-2.80;99.90;;;;;;5104420;28;20043;-64
2022/12/15 00:41:27;;;;;;;38.38;16.70;;;-2.80;99.90;;;;;;5085100;28;20035;-65
2022/12/15 00:43:53;;;;;;;30.67;15.50;;;-2.80;99.90;;;;;;5104189;28;20443;-65
2022/12/15 00:49:02;;;;;;;33.00;15.60;;;-2.80;99.90;;;;;;5101674;28;20509;-63
2022/12/15 01:21:40;;;;;;;28.13;13.15;;;-2.70;99.90;;;;;;5100303;28;20055;-63
2022/12/15 01:24:06;;;;;;;27.25;12.82;;;-2.70;99.90;;;;;;5100822;28;20043;-63
2022/12/15 01:26:31;;;;;;;26.80;12.90;;;-2.80;99.90;;;;;;5098963;28;20108;-63
2022/12/15 01:28:57;;;;;;;25.55;12.45;;;-2.70;99.90;;;;;;5100413;28;20098;-64
2022/12/15 01:31:22;;;;;;;28.45;13.38;;;-2.80;99.90;;;;;;5076741;28;20028;-64
2022/12/15 01:33:51;;;;;;;26.50;12.75;;;-2.80;99.90;;;;;;5104063;28;20165;-63
2022/12/15 01:36:17;;;;;;;26.97;12.30;;;-2.80;99.90;;;;;;5105348;28;20613;-63
2022/12/15 01:38:42;;;;;;;31.35;13.00;;;-2.80;99.90;;;;;;5088450;28;20038;-64
2022/12/15 01:41:11;;;;;;;27.38;13.00;;;-2.80;99.90;;;;;;5072523;28;20039;-64
2022/12/15 01:43:39;;;;;;;26.02;12.88;;;-2.80;99.90;;;;;;5106906;28;20089;-64
2022/12/15 01:46:07;;;;;;;27.17;12.45;;;-2.80;99.90;;;;;;5107196;28;20126;-65
2022/12/15 01:48:56;;;;;;;27.15;13.13;;;-2.80;99.90;;;;;;5076366;28;20506;-63
2022/12/15 01:51:35;;;;;;;28.90;14.25;;;-2.80;99.90;;;;;;5105766;28;20047;-63
2022/12/15 01:54:12;;;;;;;26.37;13.07;;;-2.80;99.90;;;;;;5099927;28;20035;-63
2022/12/15 01:56:48;;;;;;;27.98;13.65;;;-2.80;99.90;;;;;;5088981;28;20051;-64
2022/12/15 01:59:19;;;;;;;27.88;13.23;;;-2.80;99.90;;;;;;5085549;28;20040;-63
2022/12/15 02:01:45;;;;;;;29.27;13.30;;;-2.80;99.90;;;;;;5107991;28;20055;-65
2022/12/15 02:04:11;;;;;;;30.13;12.57;;;-2.80;99.90;;;;;;5102873;28;20039;-65
2022/12/15 02:06:36;;;;;;;28.27;13.13;;;-2.80;99.90;;;;;;5097121;28;20087;-64
2022/12/15 02:09:03;;;;;;;30.83;13.65;;;-2.80;99.90;;;;;;5105127;28;20089;-64
2022/12/15 02:11:43;;;;;;;24.90;12.60;;;-2.80;99.90;;;;;;5088138;28;20139;-64
2022/12/15 02:14:09;;;;;;;;;;;-2.80;99.90;;;;;;5083978;28;20059;-64
2022/12/15 02:17:00;;;;;;;23.50;12.20;;;-2.80;99.90;;;;;;5082854;28;19924;-65
2022/12/15 02:19:28;;;;;;;26.75;13.32;;;-2.70;99.90;;;;;;5105080;28;20039;-65
2022/12/15 02:22:26;;;;;;;29.67;12.85;;;-2.80;99.90;;;;;;5095431;28;20055;-63
2022/12/15 02:25:18;;;;;;;25.52;12.30;;;-2.80;99.90;;;;;;5104157;28;20043;-64
2022/12/15 02:28:02;;;;;;;29.30;12.77;;;-2.80;99.90;;;;;;5102223;28;20793;-65
2022/12/15 02:30:36;;;;;;;28.35;13.07;;;-2.90;99.90;;;;;;5104136;28;20445;-64
2022/12/15 02:33:13;;;;;;;20.70;12.05;;;-2.90;99.90;;;;;;5108201;28;20042;-63
2022/12/15 02:35:56;;;;;;;26.70;12.07;;;-2.90;99.90;;;;;;5077445;28;20089;-64
2022/12/15 02:38:37;;;;;;;24.38;12.88;;;-2.90;99.90;;;;;;5101045;28;20096;-64
2022/12/15 02:41:04;;;;;;;24.60;13.20;;;-3.00;99.90;;;;;;5083900;28;20402;-63
2022/12/15 02:43:34;;;;;;;29.95;12.63;;;-3.00;99.90;;;;;;5088460;28;20054;-64
2022/12/15 02:46:21;;;;;;;28.55;12.70;;;-3.10;99.90;;;;;;5107561;28;20073;-64
2022/12/15 02:49:03;;;;;;;23.48;12.20;;;-3.10;99.90;;;;;;5109961;28;20028;-65
2022/12/15 02:52:03;;;;;;;26.63;13.52;;;-3.20;99.90;;;;;;5103116;28;20039;-64
2022/12/15 02:55:01;;;;;;;27.48;12.60;;;-3.20;99.90;;;;;;5108466;28;20089;-64
2022/12/15 02:57:42;;;;;;;26.48;12.80;;;-3.20;99.90;;;;;;5100798;28;20040;-65
2022/12/15 03:00:10;;;;;;;25.67;12.48;;;-3.20;99.90;;;;;;5094051;28;20364;-65
2022/12/15 03:02:39;;;;;;;33.28;14.85;;;-3.10;99.90;;;;;;5101267;28;20036;-64
2022/12/15 03:05:06;;;;;;;23.17;11.68;;;-3.20;99.90;;;;;;5088140;28;20157;-64
2022/12/15 03:07:32;;;;;;;26.60;13.13;;;-3.20;99.90;;;;;;5081135;28;20514;-64
2022/12/15 03:09:59;;;;;;;21.70;12.27;;;-3.20;99.90;;;;;;5100531;28;20040;-65
2022/12/15 03:12:26;;;;;;;28.60;13.15;;;-3.20;99.90;;;;;;5099551;28;20032;-63
2022/12/15 03:14:52;;;;;;;30.52;13.23;;;-3.20;99.90;;;;;;5082675;28;20051;-63
2022/12/15 03:17:17;;;;;;;24.63;12.15;;;-3.20;99.90;;;;;;5084199;28;20046;-63
2022/12/15 03:19:43;;;;;;;27.38;12.68;;;-3.30;99.90;;;;;;5097645;28;20031;-64
2022/12/15 03:22:08;;;;;;;26.77;13.23;;;-3.30;99.90;;;;;;5107316;28;22310;-64
2022/12/15 03:24:34;;;;;;;26.65;11.75;;;-3.30;99.90;;;;;;5081831;28;20043;-63
2022/12/15 03:27:00;;;;;;;24.50;12.18;;;-3.30;99.90;;;;;;5081293;28;20039;-64
2022/12/15 03:29:25;;;;;;;22.15;11.90;;;-3.30;99.90;;;;;;5100752;28;20548;-63
2022/12/15 03:31:51;;;;;;;25.52;12.05;;;-3.30;99.90;;;;;;5100694;28;20067;-64
2022/12/15 03:34:16;;;;;;;24.58;12.73;;;-3.30;99.90;;;;;;5103437;28;20103;-63
2022/12/15 03:36:42;;;;;;;19.67;11.38;;;-3.30;99.90;;;;;;5088404;28;20046;-64
2022/12/15 03:39:08;;;;;;;20.20;11.02;;;-3.30;99.90;;;;;;5109336;28;20755;-63
2022/12/15 03:41:33;;;;;;;23.15;11.07;;;-3.30;99.90;;;;;;5109228;28;20063;-63
2022/12/15 03:43:59;;;;;;;23.73;11.90;;;-3.20;99.90;;;;;;5102844;28;20032;-64
2022/12/15 03:46:25;;;;;;;24.83;11.60;;;-3.30;99.90;;;;;;5109276;28;20803;-63
2022/12/15 03:48:52;;;;;;;22.42;10.85;;;-3.20;99.90;;;;;;5105907;28;20093;-63
2022/12/15 03:51:18;;;;;;;22.40;11.38;;;-3.20;99.90;;;;;;5109038;28;20067;-64
2022/12/15 03:53:46;;;;;;;22.65;11.30;;;-3.20;99.90;;;;;;5086226;28;20083;-64
2022/12/15 03:56:12;;;;;;;27.85;13.80;;;-3.20;99.90;;;;;;5098562;28;20050;-65
2022/12/15 03:58:38;;;;;;;21.20;11.10;;;-3.20;99.90;;;;;;5090513;28;20044;-63
2022/12/15 04:01:32;;;;;;;25.50;12.43;;;-3.20;99.90;;;;;;5106752;28;20039;-64
2022/12/15 04:03:58;;;;;;;23.23;11.30;;;-3.20;99.90;;;;;;5104788;28;20043;-63
2022/12/15 04:06:24;;;;;;;25.23;11.77;;;-3.20;99.90;;;;;;5106029;28;20077;-64
2022/12/15 04:08:49;;;;;;;22.67;10.85;;;-3.20;99.90;;;;;;5105303;28;20040;-65
2022/12/15 04:11:16;;;;;;;18.25;10.52;;;-3.20;99.90;;;;;;5112356;28;20356;-63
2022/12/15 04:13:41;;;;;;;21.63;11.38;;;-3.20;99.90;;;;;;5101071;28;20050;-64
2022/12/15 04:16:07;;;;;;;22.27;10.82;;;-3.20;99.90;;;;;;5109506;28;20051;-64
2022/12/15 04:18:33;;;;;;;26.83;11.73;;;-3.20;99.90;;;;;;5095727;28;20040;-64
2022/12/15 04:20:58;;;;;;;23.05;11.07;;;-3.20;99.90;;;;;;5088603;28;20031;-64
2022/12/15 04:23:24;;;;;;;23.85;12.10;;;-3.20;99.90;;;;;;5106071;28;20123;-63
2022/12/15 05:32:02;;;;;;;22.20;10.57;;;-2.90;99.90;;;;;;5090485;28;20079;-63
2022/12/15 05:34:30;;;;;;;20.85;10.80;;;-2.90;99.90;;;;;;5083936;28;20066;-65
2022/12/15 05:36:58;;;;;;;23.45;10.40;;;-2.90;99.90;;;;;;5086057;28;20584;-63
2022/12/15 05:39:24;;;;;;;20.33;11.13;;;-2.90;99.90;;;;;;5067786;28;20039;-64
2022/12/15 05:41:50;;;;;;;20.02;10.43;;;-2.80;99.90;;;;;;5104962;28;20035;-63
2022/12/15 05:44:16;;;;;;;21.15;9.75;;;-2.80;99.90;;;;;;5102610;28;20043;-64
2022/12/15 05:46:43;;;;;;;32.17;10.63;;;-2.80;99.90;;;;;;5085375;28;20043;-65
2022/12/15 05:49:10;;;;;;;20.25;10.07;;;-2.80;99.90;;;;;;5084685;28;20039;-64
2022/12/15 05:51:39;;;;;;;24.08;10.90;;;-2.80;99.90;;;;;;5098480;28;20386;-65
2022/12/15 05:54:05;;;;;;;22.30;11.00;;;-2.80;99.90;;;;;;5083715;28;20407;-63
2022/12/15 05:56:31;;;;;;;20.63;9.80;;;-2.80;99.90;;;;;;5101007;28;20046;-65
2022/12/15 05:58:56;;;;;;;19.55;10.43;;;-2.80;99.90;;;;;;5083795;28;20039;-65
2022/12/15 06:01:23;;;;;;;18.38;9.55;;;-2.80;99.90;;;;;;5085855;28;20032;-65
2022/12/15 06:03:49;;;;;;;20.15;9.40;;;-2.80;99.90;;;;;;5100430;28;20101;-65
2022/12/15 06:06:14;;;;;;;19.95;9.00;;;-2.80;99.90;;;;;;5104407;28;20044;-64
2022/12/15 06:08:42;;;;;;;18.05;9.23;;;-2.80;99.90;;;;;;5104932;28;20034;-63
2022/12/15 06:11:10;;;;;;;16.42;8.75;;;-2.70;99.90;;;;;;5111037;28;20069;-65
2022/12/15 06:13:36;;;;;;;18.60;8.32;;;-2.70;99.90;;;;;;5101033;28;20044;-64
2022/12/15 06:16:09;;;;;;;18.55;8.55;;;-2.70;99.90;;;;;;5081087;28;20040;-64
2022/12/15 06:18:37;;;;;;;18.23;9.23;;;-2.60;99.90;;;;;;5103689;28;20036;-65
2022/12/15 06:21:04;;;;;;;19.33;8.23;;;-2.70;99.90;;;;;;5102123;28;20054;-65
2022/12/15 06:23:31;;;;;;;21.27;9.50;;;-2.70;99.90;;;;;;5109802;28;20487;-64
2022/12/15 06:25:57;;;;;;;16.77;8.80;;;-2.70;99.90;;;;;;5107686;28;20043;-63
2022/12/15 06:28:23;;;;;;;20.27;9.45;;;-2.70;99.90;;;;;;5085637;28;20573;-64
2022/12/15 06:30:54;;;;;;;19.90;8.55;;;-2.70;99.90;;;;;;5108772;28;20119;-64
2022/12/15 06:33:21;;;;;;;18.38;10.00;;;-2.80;99.90;;;;;;5105115;28;20501;-64
2022/12/15 06:35:47;;;;;;;20.80;9.60;;;-2.70;99.90;;;;;;5086939;28;20062;-65
2022/12/15 06:38:13;;;;;;;19.42;9.13;;;-2.80;99.90;;;;;;5078389;28;20036;-63
2022/12/15 06:40:38;;;;;;;20.42;9.48;;;-2.80;99.90;;;;;;5086641;28;20036;-65
2022/12/15 06:43:06;;;;;;;19.55;9.50;;;-2.80;99.90;;;;;;5107296;28;20132;-63
2022/12/15 06:45:32;;;;;;;16.60;9.40;;;-2.80;99.90;;;;;;5087151;28;20075;-63
2022/12/15 06:47:58;;;;;;;14.98;8.82;;;-2.70;99.90;;;;;;5093382;28;20071;-64
2022/12/15 06:50:24;;;;;;;20.05;8.70;;;-2.80;99.90;;;;;;5109152;28;20409;-64
2022/12/15 06:52:50;;;;;;;17.30;9.07;;;-2.80;99.90;;;;;;5092606;28;20103;-64
2022/12/15 06:55:16;;;;;;;17.95;8.70;;;-2.80;99.90;;;;;;5086152;28;20043;-64
2022/12/15 06:57:42;;;;;;;20.45;9.35;;;-2.80;99.90;;;;;;5097087;28;20409;-64
2022/12/15 07:00:08;;;;;;;14.35;9.77;;;-2.80;99.90;;;;;;5076599;28;20048;-65
2022/12/15 07:02:34;;;;;;;17.05;9.15;;;-2.80;99.90;;;;;;5098314;28;20379;-63
2022/12/15 07:05:00;;;;;;;19.75;8.77;;;-2.80;99.90;;;;;;5077955;28;20047;-64
2022/12/15 07:07:26;;;;;;;16.80;9.43;;;-2.70;99.90;;;;;;5102038;28;20043;-64
2022/12/15 07:09:52;;;;;;;18.05;9.95;;;-2.80;99.90;;;;;;5110459;28;20032;-64
2022/12/15 07:12:17;;;;;;;18.27;9.48;;;-2.80;99.90;;;;;;5100862;28;20048;-65
2022/12/15 07:14:43;;;;;;;16.27;8.60;;;-2.70;99.90;;;;;;5107154;28;20768;-65
2022/12/15 07:17:10;;;;;;;24.67;9.55;;;-2.60;99.90;;;;;;5076786;28;20058;-63
2022/12/15 07:19:38;;;;;;;18.17;8.82;;;-2.60;99.90;;;;;;5100651;28;20057;-65
2022/12/15 07:22:04;;;;;;;19.35;8.60;;;-2.60;99.90;;;;;;5076732;28;20054;-63
2022/12/15 07:24:30;;;;;;;20.50;9.38;;;-2.60;99.90;;;;;;5089545;28;20047;-63
2022/12/15 07:26:55;;;;;;;19.50;9.40;;;-2.60;99.90;;;;;;5109433;28;20395;-63
2022/12/15 07:29:21;;;;;;;18.15;9.00;;;-2.70;99.90;;;;;;5098327;28;20032;-64
2022/12/15 07:31:47;;;;;;;19.10;9.93;;;-2.60;99.90;;;;;;5084728;28;20114;-64
2022/12/15 07:34:12;;;;;;;21.63;9.20;;;-2.60;99.90;;;;;;5102747;28;20058;-64
2022/12/15 07:36:38;;;;;;;18.70;8.75;;;-2.60;99.90;;;;;;5106667;28;20088;-65
2022/12/15 07:39:04;;;;;;;18.98;10.43;;;-2.60;99.90;;;;;;5096654;28;20071;-63
2022/12/15 07:41:34;;;;;;;19.10;9.50;;;-2.60;99.90;;;;;;5066615;28;20126;-64
2022/12/15 07:44:01;;;;;;;23.23;10.68;;;-2.70;99.90;;;;;;5083699;28;20412;-63
2022/12/15 07:46:27;;;;;;;20.77;9.68;;;-2.70;99.90;;;;;;5105563;28;20040;-65
2022/12/15 07:48:53;;;;;;;20.02;9.48;;;-2.70;99.90;;;;;;5078195;28;20036;-63
2022/12/15 07:51:19;;;;;;;18.17;9.20;;;-2.60;99.90;;;;;;5102580;28;20042;-63
2022/12/15 07:53:48;;;;;;;19.77;9.13;;;-2.60;99.90;;;;;;5085274;28;20076;-64
2022/12/15 07:56:14;;;;;;;18.35;8.77;;;-2.60;99.90;;;;;;5098513;28;20058;-63
2022/12/15 07:58:40;;;;;;;18.83;9.13;;;-2.60;99.90;;;;;;5104120;28;20040;-63
2022/12/15 08:01:09;;;;;;;17.73;8.57;;;-2.50;99.90;;;;;;5099827;28;20101;-64
2022/12/15 08:03:35;;;;;;;18.02;9.20;;;-2.50;99.90;;;;;;5089328;28;20028;-64
2022/12/15 08:06:08;;;;;;;18.23;8.95;;;-2.50;99.90;;;;;;5108769;28;20039;-64
2022/12/15 08:08:34;;;;;;;19.40;8.80;;;-2.50;99.90;;;;;;5107698;28;20114;-63
2022/12/15 08:11:04;;;;;;;19.45;8.55;;;-2.40;99.90;;;;;;5078297;28;20071;-64
2022/12/15 08:13:30;;;;;;;18.10;9.77;;;-2.40;99.90;;;;;;5085368;28;20050;-64
2022/12/15 08:15:55;;;;;;;15.73;8.55;;;-2.40;99.90;;;;;;5103743;28;20032;-64
2022/12/15 08:18:21;;;;;;;19.90;10.10;;;-2.40;99.90;;;;;;5107106;28;20837;-64
2022/12/15 08:20:47;;;;;;;16.30;8.85;;;-2.40;99.90;;;;;;5084164;28;20486;-63
2022/12/15 08:23:12;;;;;;;22.02;9.50;;;-2.40;99.90;;;;;;5109042;28;20058;-65
2022/12/15 08:25:38;;;;;;;15.82;8.95;;;-2.40;99.90;;;;;;5086733;28;20043;-65
2022/12/15 08:28:03;;;;;;;15.65;8.73;;;-2.40;99.90;;;;;;5089376;28;20036;-64
2022/12/15 08:30:33;;;;;;;15.65;9.05;;;-2.30;99.90;;;;;;5104070;28;20119;-64
2022/12/15 08:32:58;;;;;;;19.30;9.98;;;-2.20;99.90;;;;;;5091239;28;20122;-64
2022/12/15 08:35:24;;;;;;;19.92;10.20;;;-2.10;99.90;;;;;;5090962;28;20123;-63
2022/12/15 08:37:50;;;;;;;18.60;9.55;;;-2.10;99.90;;;;;;5100411;28;20062;-65
2022/12/15 08:40:15;;;;;;;20.80;10.05;;;-2.10;99.90;;;;;;5106068;28;20497;-64
2022/12/15 08:42:41;;;;;;;18.48;9.70;;;-2.00;99.90;;;;;;5100490;28;20035;-64
2022/12/15 08:45:07;;;;;;;17.02;9.50;;;-2.10;99.90;;;;;;5105225;28;20067;-65
2022/12/15 08:47:33;;;;;;;19.83;9.23;;;-2.00;99.90;;;;;;5100625;28;20054;-65
2022/12/15 08:49:58;;;;;;;16.98;8.98;;;-2.00;99.90;;;;;;5106787;28;20032;-65
2022/12/15 08:52:24;;;;;;;17.52;9.80;;;-2.00;99.90;;;;;;5071606;28;20038;-64
2022/12/15 08:54:49;;;;;;;18.08;9.60;;;-2.00;99.90;;;;;;5106264;28;20036;-64
2022/12/15 08:57:15;;;;;;;20.13;9.52;;;-2.00;99.90;;;;;;5101878;28;20047;-64
2022/12/15 08:59:41;;;;;;;18.02;9.18;;;-2.10;99.90;;;;;;5082125;28;20080;-64
2022/12/15 09:02:10;;;;;;;19.80;10.75;;;-2.00;99.90;;;;;;5107450;28;20040;-64
2022/12/15 09:04:36;;;;;;;20.67;9.80;;;-1.90;99.90;;;;;;5105101;28;20044;-64
2022/12/15 09:07:02;;;;;;;23.13;10.05;;;-1.90;99.90;;;;;;5084637;28;20067;-65
2022/12/15 09:09:28;;;;;;;19.38;9.48;;;-1.80;99.90;;;;;;5105732;28;20436;-64
2022/12/15 09:11:53;;;;;;;23.52;9.90;;;-1.70;99.90;;;;;;5089754;28;20038;-64
2022/12/15 09:14:19;;;;;;;20.17;9.60;;;-1.70;99.90;;;;;;5087468;28;20117;-64
2022/12/15 09:16:45;;;;;;;19.80;10.65;;;-1.70;99.90;;;;;;5105262;28;20036;-64
2022/12/15 09:19:10;;;;;;;19.95;9.80;;;-1.70;99.90;;;;;;5061095;28;20079;-65
2022/12/15 09:21:36;;;;;;;19.20;9.52;;;-1.60;99.90;;;;;;5072992;28;20035;-64
2022/12/15 09:24:03;;;;;;;17.63;9.43;;;-1.50;99.90;;;;;;5087831;28;20100;-65
2022/12/15 09:26:32;;;;;;;19.60;9.18;;;-1.50;99.90;;;;;;5108661;28;20448;-64
2022/12/15 09:28:58;;;;;;;17.40;10.00;;;-1.40;99.90;;;;;;5097838;28;20036;-65
2022/12/15 09:31:29;;;;;;;18.23;9.07;;;-1.30;99.90;;;;;;5089144;28;20096;-64
2022/12/15 09:33:57;;;;;;;16.90;9.05;;;-1.20;99.90;;;;;;5105180;28;20042;-64
2022/12/15 09:36:23;;;;;;;17.65;9.48;;;-1.10;99.90;;;;;;5104611;28;20134;-64
2022/12/15 09:38:49;;;;;;;15.45;8.85;;;-1.00;99.90;;;;;;5104018;28;20047;-66
2022/12/15 09:41:23;;;;;;;19.00;9.93;;;-1.00;99.90;;;;;;5106332;28;20031;-65
2022/12/15 09:43:59;;;;;;;14.88;8.88;;;-0.90;99.90;;;;;;5087052;28;20048;-64
2022/12/15 09:46:52;;;;;;;14.88;8.52;;;-0.80;99.90;;;;;;5108460;28;20043;-65
2022/12/15 09:49:48;;;;;;;17.17;9.73;;;-0.70;99.90;;;;;;5095019;28;20383;-65
2022/12/15 09:52:27;;;;;;;14.88;8.00;;;-0.70;99.90;;;;;;5108136;28;20499;-64
2022/12/15 09:54:53;;;;;;;17.65;9.90;;;-0.60;99.90;;;;;;5088628;28;20044;-64
2022/12/15 09:57:24;;;;;;;16.80;9.35;;;-0.60;99.90;;;;;;5096865;28;20046;-65
2022/12/15 09:59:58;;;;;;;15.85;9.82;;;-0.50;99.90;;;;;;5107602;28;20035;-63
2022/12/15 10:02:35;;;;;;;17.02;9.82;;;-0.50;99.90;;;;;;5100212;28;20123;-62
2022/12/15 10:05:10;;;;;;;26.92;10.73;;;-0.50;99.90;;;;;;5107012;28;20091;-63
2022/12/15 10:07:43;;;;;;;17.67;9.40;;;-0.40;99.90;;;;;;5107014;28;20123;-64
2022/12/15 10:10:31;;;;;;;18.67;9.60;;;-0.40;99.90;;;;;;5108818;28;20525;-62
2022/12/15 10:13:03;;;;;;;17.85;9.63;;;-0.30;99.90;;;;;;5087244;28;20038;-64
2022/12/15 10:15:40;;;;;;;19.77;10.20;;;-0.30;99.90;;;;;;5102004;28;20036;-62
2022/12/15 10:18:31;;;;;;;17.10;9.70;;;-0.30;99.90;;;;;;5101870;28;20464;-63
2022/12/15 10:20:59;;;;;;;16.10;9.00;;;-0.10;99.90;;;;;;5106120;28;20036;-64
2022/12/15 10:23:24;;;;;;;15.95;9.05;;;-0.10;99.90;;;;;;5110165;28;20399;-63
2022/12/15 10:26:19;;;;;;;18.02;9.07;;;0.00;99.90;;;;;;5075389;28;20097;-63
2022/12/15 10:29:01;;;;;;;14.95;8.73;;;0.00;99.90;;;;;;5093919;28;20079;-64
2022/12/15 10:31:51;;;;;;;19.20;8.98;;;0.00;99.90;;;;;;5111614;28;20054;-63
2022/12/15 10:34:28;;;;;;;17.90;9.13;;;0.10;99.90;;;;;;5108068;28;20032;-63
2022/12/15 10:36:55;;;;;;;19.38;9.68;;;0.10;99.90;;;;;;5086234;28;20066;-62
2022/12/15 10:39:22;;;;;;;17.33;8.77;;;0.10;99.90;;;;;;5102483;27;20059;-62
2022/12/15 10:42:11;;;;;;;18.30;9.20;;;0.20;99.90;;;;;;5102790;28;20047;-63
2022/12/15 10:44:40;;;;;;;15.07;9.43;;;0.20;99.90;;;;;;5107189;28;20526;-63
2022/12/15 10:47:15;;;;;;;14.80;8.65;;;0.30;99.90;;;;;;5090321;28;20051;-63
2022/12/15 10:49:40;;;;;;;22.63;9.30;;;0.30;99.90;;;;;;5100444;28;20032;-61
2022/12/15 10:52:26;;;;;;;17.55;8.48;;;0.40;99.90;;;;;;5107196;28;20031;-62
2022/12/15 10:54:53;;;;;;;15.93;8.77;;;0.40;99.90;;;;;;5089952;28;20368;-63
2022/12/15 10:57:20;;;;;;;14.00;8.82;;;0.50;99.90;;;;;;5109963;28;20089;-63
2022/12/15 10:59:46;;;;;;;13.40;8.65;;;0.50;99.90;;;;;;5109610;28;20067;-63
2022/12/15 11:02:24;;;;;;;13.70;8.80;;;0.50;99.90;;;;;;5103679;28;20139;-62
2022/12/15 11:05:17;;;;;;;17.83;9.68;;;0.50;99.90;;;;;;5093163;28;20043;-62
2022/12/15 11:07:48;;;;;;;17.13;9.48;;;0.60;99.90;;;;;;5093615;28;20058;-63
2022/12/15 11:10:24;;;;;;;19.20;8.30;;;0.60;99.90;;;;;;5106178;28;20040;-63
2022/12/15 11:13:11;;;;;;;14.43;8.63;;;0.70;99.90;;;;;;5108052;28;20481;-62
2022/12/15 11:15:44;;;;;;;17.00;7.65;;;0.70;99.90;;;;;;5110901;28;20071;-62
2022/12/15 11:18:30;;;;;;;16.83;9.07;;;0.80;99.90;;;;;;5079843;28;20036;-62
2022/12/15 11:21:05;;;;;;;17.00;8.95;;;0.80;99.90;;;;;;5111158;28;20059;-63
2022/12/15 11:23:49;;;;;;;16.42;9.02;;;0.80;99.90;;;;;;5112281;28;20077;-62
2022/12/15 11:26:39;;;;;;;16.80;9.55;;;0.80;99.90;;;;;;5089285;28;20623;-64
2022/12/15 11:29:16;;;;;;;19.23;9.75;;;0.80;99.90;;;;;;5110162;28;20130;-62
2022/12/15 11:31:44;;;;;;;17.50;10.20;;;0.80;99.90;;;;;;5111487;28;20036;-62
2022/12/15 11:34:16;;;;;;;16.65;10.10;;;0.80;99.90;;;;;;5112251;28;20047;-63
2022/12/15 11:37:02;;;;;;;18.48;10.07;;;0.80;99.90;;;;;;5100947;28;20112;-62
2022/12/15 11:39:47;;;;;;;20.67;11.25;;;0.90;99.90;;;;;;5110459;27;20039;-63
2022/12/15 11:42:25;;;;;;;15.23;8.90;;;0.90;99.90;;;;;;5103253;28;20131;-63
2022/12/15 11:45:06;;;;;;;14.85;9.10;;;1.00;99.90;;;;;;5087479;28;20036;-62
2022/12/15 11:47:43;;;;;;;18.65;10.20;;;1.00;99.90;;;;;;5104444;28;20042;-64
2022/12/15 11:50:30;;;;;;;16.35;9.32;;;1.10;99.90;;;;;;5109821;28;20042;-64
2022/12/15 11:53:20;;;;;;;14.30;8.40;;;1.20;99.90;;;;;;5109863;28;20038;-62
2022/12/15 11:56:07;;;;;;;14.07;8.55;;;1.30;99.90;;;;;;5107139;28;20383;-63
2022/12/15 11:58:54;;;;;;;15.18;8.30;;;1.40;99.90;;;;;;5105780;28;20032;-62
2022/12/15 12:01:40;;;;;;;16.88;9.55;;;1.40;99.90;;;;;;5088184;28;20040;-63
2022/12/15 12:04:39;;;;;;;15.93;8.63;;;1.50;99.90;;;;;;5092299;28;20073;-62
2022/12/15 12:07:25;;;;;;;13.77;7.82;;;1.50;99.90;;;;;;5107115;28;20075;-62
2022/12/15 12:10:27;;;;;;;15.40;8.07;;;1.60;99.90;;;;;;5110104;28;20383;-62
2022/12/15 12:12:59;;;;;;;14.07;8.15;;;1.70;99.90;;;;;;5107359;28;20032;-63
2022/12/15 12:15:38;;;;;;;18.50;8.65;;;1.70;99.90;;;;;;5103202;28;20494;-65
2022/12/15 12:18:26;;;;;;;14.13;8.52;;;1.70;99.90;;;;;;5108993;28;20084;-62
2022/12/15 12:21:00;;;;;;;13.48;8.05;;;1.80;99.90;;;;;;5097443;28;20045;-63
2022/12/15 12:23:47;;;;;;;13.98;7.57;;;1.80;99.90;;;;;;5107532;28;20069;-63
2022/12/15 12:26:21;;;;;;;16.55;8.73;;;1.80;99.90;;;;;;5102067;28;20051;-63
2022/12/15 12:29:18;;;;;;;14.10;8.20;;;1.80;99.90;;;;;;5085138;28;20047;-63
2022/12/15 12:31:54;;;;;;;14.70;8.23;;;1.80;99.90;;;;;;5090246;28;20114;-65
2022/12/15 12:34:32;;;;;;;15.75;7.80;;;1.90;99.90;;;;;;5084181;28;20047;-64
2022/12/15 12:37:12;;;;;;;16.73;8.75;;;1.90;99.90;;;;;;5104280;28;20066;-63
2022/12/15 12:39:38;;;;;;;18.42;8.52;;;1.90;99.90;;;;;;5089149;28;20075;-63
2022/12/15 12:42:14;;;;;;;12.57;7.35;;;1.90;99.90;;;;;;5108031;28;20093;-62
2022/12/15 12:44:39;;;;;;;18.58;8.07;;;1.90;99.90;;;;;;5109185;28;20036;-62
2022/12/15 12:47:23;;;;;;;20.35;9.50;;;1.90;99.90;;;;;;5106200;28;20051;-62
2022/12/15 12:50:03;;;;;;;15.32;8.18;;;1.90;99.90;;;;;;5090715;28;20083;-63
2022/12/15 12:52:32;;;;;;;16.73;8.77;;;1.90;99.90;;;;;;5105201;28;20044;-63
2022/12/15 12:55:03;;;;;;;17.85;8.40;;;1.90;99.90;;;;;;5104428;28;20074;-64
2022/12/15 12:57:32;;;;;;;14.57;7.70;;;1.90;99.90;;;;;;5107924;28;20035;-62
2022/12/15 13:00:06;;;;;;;16.90;8.45;;;2.00;99.90;;;;;;5103939;28;20429;-62
2022/12/15 13:02:36;;;;;;;16.08;7.95;;;2.00;99.90;;;;;;5100112;28;20372;-62
2022/12/15 13:05:20;;;;;;;16.33;7.40;;;2.00;99.90;;;;;;5109923;28;20035;-62
2022/12/15 13:08:03;;;;;;;15.98;8.20;;;2.00;99.90;;;;;;5102861;28;20088;-63
2022/12/15 13:10:35;;;;;;;14.52;8.18;;;2.00;99.90;;;;;;5109188;28;20043;-62
2022/12/15 13:13:15;;;;;;;15.88;8.55;;;2.00;99.90;;;;;;5102411;28;20089;-63
2022/12/15 13:15:45;;;;;;;16.77;9.30;;;2.00;99.90;;;;;;5104716;28;20532;-61
2022/12/15 13:18:18;;;;;;;15.95;8.85;;;1.90;99.90;;;;;;5105239;28;20123;-63
2022/12/15 13:20:46;;;;;;;18.75;9.88;;;1.90;99.90;;;;;;5107109;28;20444;-64
2022/12/15 13:23:21;;;;;;;16.58;9.10;;;1.90;99.90;;;;;;5104888;28;20042;-61
2022/12/15 13:25:58;;;;;;;15.63;9.75;;;1.80;99.90;;;;;;5086481;28;20456;-62
2022/12/15 13:28:37;;;;;;;18.92;9.93;;;1.70;99.90;;;;;;5103008;28;20042;-62
2022/12/15 13:31:23;;;;;;;21.13;10.85;;;1.70;99.90;;;;;;5110752;28;20036;-62
2022/12/15 13:33:49;;;;;;;22.15;10.27;;;1.70;99.90;;;;;;5109838;28;20132;-64
2022/12/15 13:36:36;;;;;;;20.77;10.20;;;1.70;99.90;;;;;;5108304;28;20052;-63
2022/12/15 13:39:22;;;;;;;14.98;9.55;;;1.70;99.90;;;;;;5108666;28;20043;-62
2022/12/15 13:41:47;;;;;;;18.02;10.35;;;1.70;99.90;;;;;;5097575;28;20514;-63
2022/12/15 13:44:35;;;;;;;21.42;10.15;;;1.70;99.90;;;;;;5109618;28;20040;-63
2022/12/15 13:47:11;;;;;;;16.30;9.70;;;1.60;99.90;;;;;;5110178;28;20047;-63
2022/12/15 13:49:45;;;;;;;15.20;10.20;;;1.60;99.90;;;;;;5111503;28;20062;-62
2022/12/15 13:52:30;;;;;;;19.50;10.70;;;1.60;99.90;;;;;;5109476;28;20433;-62
2022/12/15 13:55:02;;;;;;;15.88;10.45;;;1.60;99.90;;;;;;5113580;28;20109;-63
2022/12/15 13:57:32;;;;;;;21.00;11.07;;;1.50;99.90;;;;;;5113828;28;20039;-63
2022/12/15 14:00:17;;;;;;;18.83;11.10;;;1.50;99.90;;;;;;5111751;28;20031;-63
2022/12/15 14:02:43;;;;;;;19.02;10.57;;;1.50;99.90;;;;;;5084453;28;20031;-63
2022/12/15 14:05:21;;;;;;;19.48;11.13;;;1.50;99.90;;;;;;5111088;28;20496;-63
2022/12/15 14:07:49;;;;;;;18.65;11.73;;;1.50;99.90;;;;;;5105422;28;20051;-62
2022/12/15 14:10:18;;;;;;;16.92;11.15;;;1.50;99.90;;;;;;5114323;28;20063;-64
2022/12/15 14:12:45;;;;;;;21.47;12.23;;;1.40;99.90;;;;;;5095227;28;20694;-63
2022/12/15 14:15:18;;;;;;;21.58;12.02;;;1.30;99.90;;;;;;5112729;28;20071;-64
2022/12/15 14:17:51;;;;;;;24.75;11.73;;;1.30;99.90;;;;;;5092765;28;20059;-62
2022/12/15 14:20:26;;;;;;;20.30;11.23;;;1.20;99.90;;;;;;5112361;28;20031;-62
2022/12/15 14:22:53;;;;;;;19.27;11.27;;;1.20;99.90;;;;;;5083179;28;20051;-63
2022/12/15 14:25:21;;;;;;;19.88;12.55;;;1.20;99.90;;;;;;5110029;28;20043;-63
2022/12/15 14:27:48;;;;;;;22.02;12.02;;;1.20;99.90;;;;;;5093691;28;20042;-63
2022/12/15 14:30:28;;;;;;;23.23;12.02;;;1.10;99.90;;;;;;5112739;28;20110;-63
2022/12/15 14:33:09;;;;;;;17.75;11.80;;;1.10;99.90;;;;;;5112155;28;20093;-63
2022/12/15 14:35:43;;;;;;;22.60;12.23;;;1.00;99.90;;;;;;5113728;28;20471;-62
2022/12/15 14:38:17;;;;;;;20.80;12.77;;;1.10;99.90;;;;;;5113476;28;20544;-62
2022/12/15 14:40:45;;;;;;;22.38;12.13;;;1.00;99.90;;;;;;5104102;28;20031;-64
2022/12/15 14:43:22;;;;;;;21.13;12.45;;;0.90;99.90;;;;;;5106060;28;20060;-64
2022/12/15 14:45:55;;;;;;;21.50;12.48;;;0.90;99.90;;;;;;5110854;28;20498;-63
2022/12/15 14:48:29;;;;;;;22.73;12.60;;;0.80;99.90;;;;;;5107777;28;20036;-64
2022/12/15 14:50:59;;;;;;;21.67;13.88;;;0.80;99.90;;;;;;5105519;28;20035;-62
2022/12/15 14:53:31;;;;;;;22.50;12.27;;;0.80;99.90;;;;;;5088196;28;20079;-62
2022/12/15 14:56:10;;;;;;;24.83;12.98;;;0.80;99.90;;;;;;5088147;28;20042;-63
2022/12/15 14:58:39;;;;;;;23.90;12.40;;;0.70;99.90;;;;;;5103791;28;20035;-64
2022/12/15 15:01:32;;;;;;;24.33;12.18;;;0.60;99.90;;;;;;5108221;28;20043;-63
2022/12/15 15:04:04;;;;;;;22.52;12.38;;;0.50;99.90;;;;;;5100943;28;20039;-64
2022/12/15 15:06:35;;;;;;;22.88;13.77;;;0.50;99.90;;;;;;5109349;28;20435;-62
2022/12/15 15:09:26;;;;;;;24.63;14.05;;;0.40;99.90;;;;;;5092943;28;20063;-62
2022/12/15 15:11:58;;;;;;;23.60;13.55;;;0.40;99.90;;;;;;5085661;28;20036;-63
2022/12/15 15:14:31;;;;;;;27.42;14.15;;;0.30;99.90;;;;;;5090580;28;20043;-64
2022/12/15 15:17:04;;;;;;;26.23;14.90;;;0.30;99.90;;;;;;5088402;28;20052;-63